Aérodrome :
LOGIN :

S'inscrire | Disclaimer

   EN    FR    IT 

 










Légende :    VFR   VFR Marginal   IFR   IFR Intensif   IFR Très Intensif
Visi : 
Plafond : 
>= 8 km
>= 3000ft
5 à 8 km
1000 à 3000 ft
1500m à 5 km
500 à 1000 ft
800 à 1500m
200 à 500 ft
< 800m
< 200 ft
Symboles :   Orages  Brouillard  Fortes neiges  Fortes précipitations  Vent > 20 kt
SIGMETs :   Divers  Orages  Givrage  Turbulence  Onde Orograph.  Cendres Volcan.







- Altitude de l'aérodrome : 741 ft
- Code IATA : PED


LKPD - Pardubice AB

DERNIER METAR :
  • 200000Z VRB02KT CAVOK 12/10 Q1003 RMK BLU

METARs EXPIRÉS :
  • 192300Z 09004KT CAVOK 14/11 Q1004 RMK BLU
  • 192200Z 09004KT CAVOK 15/11 Q1004

TAF TAF LKPD
Valide du 20 à 00h jusqu'au 21 à 00h UTC


192300Z 2000/2100 12008KT CAVOK
TEMPO 2000/2008 VRB02KT
BECMG 2004/2006 BKN035
TEMPO 2006/2010 5000 RA BKN013 OVC024
TEMPO 2010/2018 14014KT 7000 SHRA BKN030TCU
PROB30
TEMPO 2011/2017 16018G28KT 4000 TSRA BKN020CB
BECMG 2018/2020 CAVOK
Pas de NOTAMs connus pour ce terrain.



MET'MAP, la Météo Aéronautique d'un coup d'oeil ! - Copyright ORBIFLY Décembre 2007 - Disclaimer

ORBIFLY MET'MAP TEAM :

Programmation & Développement : Alexandra Zaïnal
Conception & Développement : Baudouin d'Aumeries
Co-Programmation & Développement : Marc-Olivier Méhu
Soutien technique & logistique : Manuel Goepfert

Contact : metmap@orbifly.com




SOURCES & CREDITS :

   NOAA